createdAt,value
2023-11-18T00:01:43.204Z,102393.34
2023-11-18T00:04:16.960Z,102397.69
2023-11-18T00:06:47.271Z,102391.81
2023-11-18T00:09:14.447Z,102392.84
2023-11-18T00:11:41.539Z,102385.75
2023-11-18T00:14:08.435Z,102392.63
2023-11-18T00:16:35.656Z,102387.59
2023-11-18T00:19:02.657Z,102391.97
2023-11-18T00:21:29.146Z,102395.19
2023-11-18T00:23:57.076Z,102388.31
2023-11-18T00:26:23.681Z,102385.53
2023-11-18T00:28:50.466Z,102388.69
2023-11-18T00:31:17.046Z,102384.00
2023-11-18T00:33:44.279Z,102384.47
2023-11-18T00:36:10.831Z,102384.09
2023-11-18T00:38:37.319Z,102385.00
2023-11-18T00:41:04.153Z,102382.06
2023-11-18T00:43:30.759Z,102375.31
2023-11-18T00:45:59.101Z,102379.00
2023-11-18T00:48:25.657Z,102385.19
2023-11-18T00:50:53.022Z,102375.38
2023-11-18T00:53:20.004Z,102382.94
2023-11-18T00:55:46.702Z,102386.97
2023-11-18T00:58:13.414Z,102378.22
2023-11-18T01:00:39.992Z,102394.09
2023-11-18T01:03:06.525Z,102378.59
2023-11-18T01:05:32.994Z,102397.03
2023-11-18T01:07:59.515Z,102394.88
2023-11-18T01:10:26.064Z,102397.13
2023-11-18T01:12:52.564Z,102393.34
2023-11-18T01:15:19.057Z,102396.84
2023-11-18T01:17:45.731Z,102402.53
2023-11-18T01:20:13.245Z,102402.34
2023-11-18T01:22:40.505Z,102402.25
2023-11-18T01:25:07.668Z,102409.25
2023-11-18T01:27:37.016Z,102409.34
2023-11-18T01:30:05.848Z,102404.09
2023-11-18T01:32:32.875Z,102390.03
2023-11-18T01:34:59.899Z,102393.75
2023-11-18T01:37:26.551Z,102402.00
2023-11-18T01:39:53.126Z,102406.22
2023-11-18T01:42:19.622Z,102399.13
2023-11-18T01:44:46.140Z,102403.28
2023-11-18T01:47:13.709Z,102403.28
2023-11-18T01:49:42.011Z,102402.34
2023-11-18T01:52:09.010Z,102384.06
2023-11-18T01:54:38.858Z,102392.34
2023-11-18T01:57:07.237Z,102387.28
2023-11-18T01:59:34.847Z,102377.97
2023-11-18T02:02:03.166Z,102389.53
2023-11-18T02:04:30.816Z,102390.47
2023-11-18T02:06:58.245Z,102395.81
2023-11-18T02:09:31.581Z,102389.00
2023-11-18T02:12:17.525Z,102407.03
2023-11-18T02:14:44.522Z,102405.69
2023-11-18T02:17:12.143Z,102392.91
2023-11-18T02:19:40.330Z,102403.66
2023-11-18T02:22:12.261Z,102413.97
2023-11-18T02:24:38.880Z,102411.38
2023-11-18T02:27:12.555Z,102411.28
2023-11-18T02:29:44.202Z,102403.00
2023-11-18T02:32:25.218Z,102402.09
2023-11-18T02:35:01.992Z,102400.53
2023-11-18T02:37:28.721Z,102402.28
2023-11-18T02:40:04.969Z,102388.03
2023-11-18T02:42:31.689Z,102392.47
2023-11-18T02:45:00.592Z,102389.16
2023-11-18T02:47:28.122Z,102387.41
2023-11-18T02:49:55.841Z,102379.59
2023-11-18T02:52:22.389Z,102369.66
2023-11-18T02:54:48.819Z,102370.41
2023-11-18T02:57:15.305Z,102365.75
2023-11-18T02:59:41.742Z,102366.69
2023-11-18T03:02:08.345Z,102365.75
2023-11-18T03:04:35.100Z,102367.81
2023-11-18T03:07:01.843Z,102364.13
2023-11-18T03:09:28.881Z,102360.91
2023-11-18T03:11:56.063Z,102365.13
2023-11-18T03:14:22.953Z,102365.97
2023-11-18T03:16:49.481Z,102359.78
2023-11-18T03:19:15.971Z,102356.94
2023-11-18T03:21:42.468Z,102354.13
2023-11-18T03:24:10.374Z,102354.13
2023-11-18T03:26:36.850Z,102335.25
2023-11-18T03:29:03.441Z,102338.03
2023-11-18T03:31:30.226Z,102343.81
2023-11-18T03:33:57.206Z,102345.69
2023-11-18T03:36:23.702Z,102333.59
2023-11-18T03:38:50.497Z,102325.88
2023-11-18T03:41:16.941Z,102321.56
2023-11-18T03:43:43.492Z,102317.13
2023-11-18T03:46:11.871Z,102315.38
2023-11-18T03:48:38.486Z,102310.84
2023-11-18T03:51:05.391Z,102302.31
2023-11-18T03:53:31.850Z,102296.09
2023-11-18T03:55:58.723Z,102288.91
2023-11-18T03:58:25.236Z,102282.75
2023-11-18T04:00:51.845Z,102275.72
2023-11-18T04:03:18.396Z,102279.13
2023-11-18T04:05:45.282Z,102263.31
2023-11-18T04:08:12.814Z,102270.34
2023-11-18T04:10:39.354Z,102241.56
2023-11-18T04:13:05.833Z,102260.44
2023-11-18T04:15:32.677Z,102272.09
2023-11-18T04:17:59.573Z,102269.72
2023-11-18T04:20:26.031Z,102274.06
2023-11-18T04:22:52.565Z,102257.88
2023-11-18T04:25:19.071Z,102250.13
2023-11-18T04:27:47.182Z,102246.53
2023-11-18T04:30:14.362Z,102246.41
2023-11-18T04:32:43.704Z,102243.84
2023-11-18T04:35:11.174Z,102233.75
2023-11-18T04:37:37.891Z,102236.34
2023-11-18T04:40:05.069Z,102240.44
2023-11-18T04:42:31.581Z,102237.88
2023-11-18T04:44:58.755Z,102224.16
2023-11-18T04:47:26.488Z,102230.66
2023-11-18T04:49:53.401Z,102229.81
2023-11-18T04:52:20.034Z,102227.34
2023-11-18T04:54:49.174Z,102214.56
2023-11-18T04:57:15.923Z,102221.44
2023-11-18T04:59:45.097Z,102217.44
2023-11-18T05:02:11.728Z,102221.97
2023-11-18T05:04:38.443Z,102227.03
2023-11-18T05:07:05.512Z,102229.50
2023-11-18T05:09:32.659Z,102227.97
2023-11-18T05:12:00.319Z,102218.56
2023-11-18T05:14:27.659Z,102221.06
2023-11-18T05:16:54.723Z,102201.16
2023-11-18T05:19:21.472Z,102207.84
2023-11-18T05:21:50.888Z,102206.72
2023-11-18T05:24:17.604Z,102206.59
2023-11-18T05:26:44.121Z,102200.63
2023-11-18T05:29:11.180Z,102202.41
2023-11-18T05:31:38.401Z,102198.66
2023-11-18T05:34:05.807Z,102200.53
2023-11-18T05:36:38.214Z,102197.66
2023-11-18T05:39:06.159Z,102195.69
2023-11-18T05:41:33.257Z,102201.78
2023-11-18T05:43:59.965Z,102194.66
2023-11-18T05:46:30.700Z,102186.81
2023-11-18T05:48:57.670Z,102190.00
2023-11-18T05:51:29.962Z,102184.75
2023-11-18T05:53:56.503Z,102168.44
2023-11-18T05:56:26.374Z,102164.22
2023-11-18T05:58:56.190Z,102148.34
2023-11-18T06:01:23.331Z,102166.91
2023-11-18T06:03:50.147Z,102173.59
2023-11-18T06:06:21.181Z,102167.72
2023-11-18T06:08:50.541Z,102163.81
2023-11-18T06:11:17.723Z,102155.44
2023-11-18T06:13:48.009Z,102152.47
2023-11-18T06:16:15.622Z,102143.41
2023-11-18T06:18:45.671Z,102155.97
2023-11-18T06:21:16.583Z,102153.59
2023-11-18T06:23:43.818Z,102157.75
2023-11-18T06:26:12.966Z,102158.56
2023-11-18T06:28:41.236Z,102150.00
2023-11-18T06:31:12.646Z,102142.91
2023-11-18T06:33:46.221Z,102128.63
2023-11-18T06:36:15.897Z,102138.94
2023-11-18T06:38:42.774Z,102142.47
2023-11-18T06:41:12.091Z,102148.16
2023-11-18T06:43:57.569Z,102155.16
2023-11-18T06:46:35.140Z,102153.31
2023-11-18T06:49:07.756Z,102144.97
2023-11-18T06:51:39.538Z,102150.22
2023-11-18T06:54:10.490Z,102150.94
2023-11-18T06:56:38.956Z,102161.97
2023-11-18T06:59:08.446Z,102157.84
2023-11-18T07:01:36.745Z,102158.47
2023-11-18T07:04:04.047Z,102149.25
2023-11-18T07:06:30.595Z,102138.66
2023-11-18T07:09:01.185Z,102135.66
2023-11-18T07:11:28.597Z,102148.97
2023-11-18T07:13:57.507Z,102155.16
2023-11-18T07:16:25.320Z,102155.88
2023-11-18T07:18:52.578Z,102162.06
2023-11-18T07:21:19.754Z,102151.75
2023-11-18T07:23:46.291Z,102174.75
2023-11-18T07:26:14.842Z,102165.34
2023-11-18T07:28:41.955Z,102170.63
2023-11-18T07:31:09.142Z,102177.63
2023-11-18T07:33:35.662Z,102183.53
2023-11-18T07:36:06.808Z,102184.03
2023-11-18T07:38:34.603Z,102185.78
2023-11-18T07:41:03.707Z,102182.47
2023-11-18T07:43:30.377Z,102151.75
2023-11-18T07:45:56.868Z,102156.81
2023-11-18T07:48:23.408Z,102153.50
2023-11-18T07:50:49.887Z,102151.84
2023-11-18T07:53:17.074Z,102149.88
2023-11-18T07:55:43.606Z,102139.69
2023-11-18T07:58:13.877Z,102133.50
2023-11-18T08:00:40.629Z,102130.41
2023-11-18T08:03:14.485Z,102131.22
2023-11-18T08:05:46.020Z,102124.94
2023-11-18T08:08:13.391Z,102122.97
2023-11-18T08:10:42.000Z,102124.94
2023-11-18T08:13:09.177Z,102123.34
2023-11-18T08:15:36.427Z,102113.03
2023-11-18T08:18:04.080Z,102116.25
2023-11-18T08:20:31.603Z,102107.47
2023-11-18T08:22:58.138Z,102109.13
2023-11-18T08:25:24.859Z,102105.41
2023-11-18T08:27:51.327Z,102113.88
2023-11-18T08:30:19.072Z,102108.91
2023-11-18T08:32:46.895Z,102097.78
2023-11-18T08:35:17.105Z,102091.25
2023-11-18T08:37:44.593Z,102074.00
2023-11-18T08:40:21.374Z,102098.66
2023-11-18T08:42:51.308Z,102099.38
2023-11-18T08:45:28.260Z,102083.56
2023-11-18T08:47:54.832Z,102083.22
2023-11-18T08:50:24.874Z,102071.38
2023-11-18T08:53:00.715Z,102071.19
2023-11-18T08:55:42.557Z,102066.00
2023-11-18T08:58:22.941Z,102066.16
2023-11-18T09:00:55.925Z,102038.84
2023-11-18T09:03:35.359Z,102052.94
2023-11-18T09:06:07.893Z,102040.16
2023-11-18T09:08:43.714Z,102025.16
2023-11-18T09:11:14.735Z,102036.19
2023-11-18T09:13:43.747Z,102033.97
2023-11-18T09:16:10.635Z,102030.25
2023-11-18T09:18:46.052Z,102020.84
2023-11-18T09:21:16.872Z,102009.50
2023-11-18T09:23:44.313Z,102002.56
2023-11-18T09:26:11.621Z,101993.50
2023-11-18T09:28:39.039Z,101992.56
2023-11-18T09:31:06.376Z,101995.84
2023-11-18T09:33:34.651Z,101986.13
2023-11-18T09:36:08.865Z,101978.25
2023-11-18T09:38:37.035Z,101971.91
2023-11-18T09:41:08.614Z,101974.50
2023-11-18T09:43:43.499Z,101962.53
2023-11-18T09:46:14.457Z,101969.13
2023-11-18T09:49:16.192Z,101956.22
2023-11-18T09:51:45.556Z,101966.63
2023-11-18T09:54:30.447Z,101968.03
2023-11-18T09:57:15.667Z,101977.34
2023-11-18T09:59:56.516Z,101984.13
2023-11-18T10:02:27.055Z,101972.78
2023-11-18T10:04:58.794Z,101967.34
2023-11-18T10:07:33.620Z,101978.28
2023-11-18T10:10:00.327Z,101971.97
2023-11-18T10:12:28.154Z,101947.06
2023-11-18T10:14:55.371Z,101956.69
2023-11-18T10:17:23.190Z,101966.81
2023-11-18T10:20:00.789Z,101964.34
2023-11-18T10:22:29.084Z,101959.75
2023-11-18T10:24:56.878Z,101954.22
2023-11-18T10:27:27.417Z,101966.34
2023-11-18T10:30:19.918Z,101954.38
2023-11-18T10:33:06.721Z,101940.88
2023-11-18T10:35:34.309Z,101927.59
2023-11-18T10:38:05.822Z,101910.59
2023-11-18T10:40:38.534Z,101917.63
2023-11-18T10:43:10.839Z,101911.50
2023-11-18T10:45:42.948Z,101905.53
2023-11-18T10:48:14.034Z,101903.53
2023-11-18T10:50:40.619Z,101899.19
2023-11-18T10:53:12.387Z,101900.47
2023-11-18T10:55:39.478Z,101892.88
2023-11-18T10:58:06.060Z,101891.44
2023-11-18T11:00:52.949Z,101874.56
2023-11-18T11:03:19.778Z,101886.16
2023-11-18T11:05:46.719Z,101883.56
2023-11-18T11:08:15.446Z,101860.22
2023-11-18T11:10:44.916Z,101875.91
2023-11-18T11:13:16.281Z,101852.94
2023-11-18T11:15:51.968Z,101831.19
2023-11-18T11:18:29.399Z,101816.06
2023-11-18T11:21:08.616Z,101798.44
2023-11-18T11:23:45.049Z,101779.22
2023-11-18T11:26:24.115Z,101753.84
2023-11-18T11:29:05.518Z,101730.28
2023-11-18T11:31:37.712Z,101731.56
2023-11-18T11:34:21.775Z,101740.31
2023-11-18T11:36:52.147Z,101753.97
2023-11-18T11:39:26.431Z,101745.94
2023-11-18T11:41:57.500Z,101735.31
2023-11-18T11:44:32.077Z,101714.50
2023-11-18T11:47:01.953Z,101700.66
2023-11-18T11:49:35.960Z,101693.25
2023-11-18T11:52:05.666Z,101671.53
2023-11-18T11:55:00.169Z,101665.31
2023-11-18T11:57:31.325Z,101670.00
2023-11-18T12:00:01.755Z,101676.97
2023-11-18T12:02:33.632Z,101660.53
2023-11-18T12:05:00.900Z,101661.09
2023-11-18T12:07:33.056Z,101637.66
2023-11-18T12:10:00.771Z,101642.19
2023-11-18T12:12:28.241Z,101642.06
2023-11-18T12:14:57.679Z,101652.47
2023-11-18T12:17:26.865Z,101657.56
2023-11-18T12:20:00.160Z,101638.91
2023-11-18T12:22:34.473Z,101625.38
2023-11-18T12:25:05.729Z,101609.97
2023-11-18T12:27:53.684Z,101588.47
2023-11-18T12:30:30.380Z,101575.44
2023-11-18T12:33:11.075Z,101527.91
2023-11-18T12:35:53.914Z,101525.72
2023-11-18T12:38:35.425Z,101520.44
2023-11-18T12:41:08.461Z,101517.03
2023-11-18T12:43:52.823Z,101543.34
2023-11-18T12:46:41.226Z,101533.66
2023-11-18T12:49:08.426Z,101492.13
2023-11-18T12:51:37.865Z,101446.47
2023-11-18T12:54:08.077Z,101470.13
2023-11-18T12:56:34.895Z,101466.28
2023-11-18T12:59:01.404Z,101486.50
2023-11-18T13:01:28.639Z,101476.28
2023-11-18T13:03:55.364Z,101459.00
2023-11-18T13:06:26.502Z,101451.06
2023-11-18T13:08:53.031Z,101480.53
2023-11-18T13:11:19.699Z,101459.53
2023-11-18T13:13:46.904Z,101477.94
2023-11-18T13:16:16.502Z,101472.78
2023-11-18T13:18:50.314Z,101471.13
2023-11-18T13:21:17.602Z,101458.19
2023-11-18T13:23:56.634Z,101450.00
2023-11-18T13:26:23.661Z,101436.56
2023-11-18T13:28:50.663Z,101412.63
2023-11-18T13:31:18.049Z,101403.91
2023-11-18T13:33:45.216Z,101420.38
2023-11-18T13:36:12.181Z,101417.13
2023-11-18T13:38:39.061Z,101400.94
2023-11-18T13:41:05.898Z,101419.16
2023-11-18T13:43:51.135Z,101411.00
2023-11-18T13:46:21.146Z,101409.50
2023-11-18T13:48:50.595Z,101405.00
2023-11-18T13:51:18.625Z,101402.16
2023-11-18T13:53:45.268Z,101395.22
2023-11-18T13:56:13.479Z,101387.19
2023-11-18T13:58:41.099Z,101382.81
2023-11-18T14:01:11.899Z,101374.94
2023-11-18T14:03:39.412Z,101358.31
2023-11-18T14:06:13.523Z,101342.81
2023-11-18T14:08:40.351Z,101338.88
2023-11-18T14:11:15.120Z,101325.13
2023-11-18T14:13:44.234Z,101329.88
2023-11-18T14:16:11.546Z,101320.09
2023-11-18T14:18:38.173Z,101311.09
2023-11-18T14:21:06.842Z,101314.94
2023-11-18T14:23:33.533Z,101302.00
2023-11-18T14:26:00.079Z,101294.78
2023-11-18T14:28:27.617Z,101286.47
2023-11-18T14:30:54.154Z,101276.16
2023-11-18T14:33:20.743Z,101282.78
2023-11-18T14:35:47.440Z,101288.13
2023-11-18T14:38:14.104Z,101295.19
2023-11-18T14:40:42.675Z,101277.22
2023-11-18T14:43:09.688Z,101281.28
2023-11-18T14:45:36.208Z,101268.53
2023-11-18T14:48:03.776Z,101262.25
2023-11-18T14:50:31.183Z,101265.38
2023-11-18T14:53:01.110Z,101257.75
2023-11-18T14:55:28.572Z,101255.69
2023-11-18T14:57:56.216Z,101265.50
2023-11-18T15:00:25.842Z,101253.09
2023-11-18T15:02:55.250Z,101247.13
2023-11-18T15:05:23.701Z,101240.03
2023-11-18T15:07:54.624Z,101228.50
2023-11-18T15:10:28.728Z,101230.50
2023-11-18T15:12:59.845Z,101236.47
2023-11-18T15:15:33.449Z,101213.66
2023-11-18T15:18:11.154Z,101208.28
2023-11-18T15:20:38.212Z,101186.00
2023-11-18T15:23:05.751Z,101186.00
2023-11-18T15:25:32.398Z,101198.63
2023-11-18T15:27:59.810Z,101201.06
2023-11-18T15:30:26.708Z,101193.03
2023-11-18T15:32:53.411Z,101196.56
2023-11-18T15:35:22.167Z,101184.47
2023-11-18T15:37:49.104Z,101186.06
2023-11-18T15:40:20.294Z,101176.97
2023-11-18T15:42:49.687Z,101173.81
2023-11-18T15:45:21.713Z,101171.22
2023-11-18T15:47:49.563Z,101155.44
2023-11-18T15:50:18.094Z,101140.56
2023-11-18T15:52:45.981Z,101143.28
2023-11-18T15:55:15.178Z,101128.31
2023-11-18T15:57:42.797Z,101130.75
2023-11-18T16:00:17.657Z,101134.13
2023-11-18T16:02:46.180Z,101132.38
2023-11-18T16:05:17.005Z,101127.75
2023-11-18T16:07:44.755Z,101120.91
2023-11-18T16:10:12.346Z,101113.59
2023-11-18T16:12:38.903Z,101097.25
2023-11-18T16:15:07.074Z,101059.56
2023-11-18T16:17:34.241Z,101079.00
2023-11-18T16:20:00.965Z,101081.59
2023-11-18T16:22:27.460Z,101078.88
2023-11-18T16:24:53.905Z,101089.88
2023-11-18T16:27:20.351Z,101099.78
2023-11-18T16:29:46.844Z,101105.78
2023-11-18T16:32:13.467Z,101097.56
2023-11-18T16:34:39.991Z,101081.09
2023-11-18T16:37:06.523Z,101079.75
2023-11-18T16:39:33.867Z,101068.56
2023-11-18T16:42:00.481Z,101058.75
2023-11-18T16:44:27.106Z,101044.06
2023-11-18T16:46:53.750Z,101052.63
2023-11-18T16:49:20.299Z,101052.47
2023-11-18T16:51:52.850Z,101050.25
2023-11-18T16:54:33.300Z,101039.22
2023-11-18T16:57:06.314Z,101027.50
2023-11-18T16:59:32.740Z,101035.84
2023-11-18T17:01:59.252Z,101025.19
2023-11-18T17:04:25.919Z,101019.22
2023-11-18T17:06:52.511Z,101015.66
2023-11-18T17:09:18.984Z,101035.53
2023-11-18T17:11:48.461Z,101042.66
2023-11-18T17:14:16.064Z,101044.34
2023-11-18T17:16:45.354Z,101030.59
2023-11-18T17:19:12.832Z,101039.03
2023-11-18T17:21:39.709Z,101037.38
2023-11-18T17:24:06.750Z,101036.81
2023-11-18T17:26:40.034Z,101038.94
2023-11-18T17:29:07.496Z,101042.47
2023-11-18T17:31:35.472Z,101042.31
2023-11-18T17:34:02.826Z,101033.13
2023-11-18T17:36:29.269Z,101028.28
2023-11-18T17:38:56.094Z,101031.06
2023-11-18T17:41:22.944Z,101026.72
2023-11-18T17:43:50.423Z,101028.78
2023-11-18T17:46:17.169Z,101032.41
2023-11-18T17:48:43.795Z,101024.63
2023-11-18T17:51:10.303Z,101017.38
2023-11-18T17:53:37.190Z,101004.75
2023-11-18T17:56:06.483Z,100993.66
2023-11-18T17:58:33.413Z,100986.19
2023-11-18T18:01:02.390Z,100979.59
2023-11-18T18:03:29.432Z,100985.91
2023-11-18T18:05:56.025Z,100977.81
2023-11-18T18:08:22.490Z,100996.94
2023-11-18T18:10:49.686Z,100994.22
2023-11-18T18:13:16.504Z,100989.34
2023-11-18T18:15:43.161Z,100976.72
2023-11-18T18:18:10.413Z,100968.81
2023-11-18T18:20:37.028Z,100980.31
2023-11-18T18:23:04.585Z,100980.69
2023-11-18T18:25:31.082Z,100985.72
2023-11-18T18:27:57.543Z,100976.97
2023-11-18T18:30:24.020Z,100975.56
2023-11-18T18:32:51.073Z,100983.34
2023-11-18T18:35:18.115Z,100978.66
2023-11-18T18:37:44.744Z,100967.19
2023-11-18T18:40:13.029Z,100971.75
2023-11-18T18:42:41.555Z,100977.44
2023-11-18T18:45:09.128Z,100977.63
2023-11-18T18:47:36.182Z,100979.41
2023-11-18T18:50:02.802Z,100986.56
2023-11-18T18:52:29.504Z,100987.06
2023-11-18T18:54:56.117Z,100972.50
2023-11-18T18:57:22.837Z,100976.88
2023-11-18T18:59:49.511Z,100988.56
2023-11-18T19:02:16.895Z,100980.47
2023-11-18T19:04:43.562Z,100984.84
2023-11-18T19:07:11.116Z,100983.53
2023-11-18T19:09:37.629Z,100966.72
2023-11-18T19:12:04.839Z,100957.47
2023-11-18T19:14:31.361Z,100951.78
2023-11-18T19:16:58.457Z,100956.50
2023-11-18T19:19:25.035Z,100942.22
2023-11-18T19:21:52.279Z,100943.97
2023-11-18T19:24:20.082Z,100928.91
2023-11-18T19:26:48.229Z,100935.53
2023-11-18T19:29:14.752Z,100950.63
2023-11-18T19:31:41.223Z,100946.41
2023-11-18T19:34:07.769Z,100951.41
2023-11-18T19:36:34.469Z,100946.38
2023-11-18T19:39:00.956Z,100952.84
2023-11-18T19:41:27.694Z,100950.56
2023-11-18T19:43:54.321Z,100943.09
2023-11-18T19:46:22.243Z,100931.72
2023-11-18T19:48:48.819Z,100926.34
2023-11-18T19:51:15.353Z,100924.72
2023-11-18T19:53:42.223Z,100923.25
2023-11-18T19:56:10.623Z,100921.91
2023-11-18T19:58:37.278Z,100911.53
2023-11-18T20:01:03.869Z,100903.88
2023-11-18T20:03:30.742Z,100910.19
2023-11-18T20:05:57.490Z,100906.25
2023-11-18T20:08:24.202Z,100893.41
2023-11-18T20:10:50.660Z,100894.88
2023-11-18T20:13:17.168Z,100895.19
2023-11-18T20:15:43.705Z,100876.53
2023-11-18T20:18:12.832Z,100887.41
2023-11-18T20:20:39.589Z,100890.00
2023-11-18T20:23:06.309Z,100889.13
2023-11-18T20:25:33.044Z,100890.41
2023-11-18T20:27:59.548Z,100894.25
2023-11-18T20:30:26.119Z,100899.47
2023-11-18T20:32:53.028Z,100891.66
2023-11-18T20:35:20.090Z,100910.69
2023-11-18T20:37:48.711Z,100900.41
2023-11-18T20:40:17.642Z,100899.44
2023-11-18T20:42:44.292Z,100906.06
2023-11-18T20:45:14.936Z,100904.47
2023-11-18T20:47:41.796Z,100897.94
2023-11-18T20:50:08.865Z,100890.13
2023-11-18T20:52:35.362Z,100879.44
2023-11-18T20:55:04.669Z,100882.63
2023-11-18T20:57:31.159Z,100881.16
2023-11-18T20:59:58.083Z,100880.31
2023-11-18T21:02:24.660Z,100893.31
2023-11-18T21:04:51.485Z,100887.56
2023-11-18T21:07:18.222Z,100889.03
2023-11-18T21:09:44.674Z,100884.34
2023-11-18T21:12:18.172Z,100884.28
2023-11-18T21:14:49.327Z,100869.81
2023-11-18T21:17:16.124Z,100852.88
2023-11-18T21:19:43.137Z,100858.53
2023-11-18T21:22:09.831Z,100842.13
2023-11-18T21:24:36.294Z,100844.84
2023-11-18T21:27:02.791Z,100848.25
2023-11-18T21:29:29.358Z,100856.16
2023-11-18T21:31:55.861Z,100863.50
2023-11-18T21:34:22.301Z,100840.38
2023-11-18T21:36:48.803Z,100831.41
2023-11-18T21:39:19.018Z,100826.03
2023-11-18T21:41:45.545Z,100830.44
2023-11-18T21:44:12.047Z,100831.22
2023-11-18T21:46:38.600Z,100840.63
2023-11-18T21:49:10.627Z,100841.53
2023-11-18T21:51:37.860Z,100826.94
2023-11-18T21:54:04.716Z,100812.28
2023-11-18T21:56:34.605Z,100803.94
2023-11-18T21:59:01.228Z,100821.25
2023-11-18T22:01:27.942Z,100832.03
2023-11-18T22:03:54.477Z,100837.97
2023-11-18T22:06:23.693Z,100819.13
2023-11-18T22:08:50.360Z,100819.75
2023-11-18T22:11:20.127Z,100822.63
2023-11-18T22:13:49.673Z,100818.56
2023-11-18T22:16:16.427Z,100823.97
2023-11-18T22:18:42.983Z,100816.78
2023-11-18T22:21:09.490Z,100804.75
2023-11-18T22:23:38.617Z,100814.25
2023-11-18T22:26:06.094Z,100813.75
2023-11-18T22:28:33.298Z,100819.28
2023-11-18T22:31:00.276Z,100807.72
2023-11-18T22:33:27.196Z,100805.31
2023-11-18T22:35:55.016Z,100807.53
2023-11-18T22:38:25.336Z,100808.25
2023-11-18T22:40:52.167Z,100810.97
2023-11-18T22:43:20.461Z,100813.28
2023-11-18T22:45:49.856Z,100819.78
2023-11-18T22:48:16.446Z,100806.09
2023-11-18T22:50:43.013Z,100801.63
2023-11-18T22:53:10.636Z,100816.63
2023-11-18T22:55:39.470Z,100817.00
2023-11-18T22:58:06.141Z,100809.97
2023-11-18T23:00:51.506Z,100819.50
2023-11-18T23:03:19.125Z,100809.44
2023-11-18T23:05:45.959Z,100814.13
2023-11-18T23:08:17.853Z,100820.13
2023-11-18T23:10:45.429Z,100821.66
2023-11-18T23:13:12.798Z,100812.59
2023-11-18T23:15:41.009Z,100821.03
2023-11-18T23:18:08.482Z,100813.47
2023-11-18T23:20:37.942Z,100809.53
2023-11-18T23:23:04.742Z,100813.91
2023-11-18T23:25:31.288Z,100819.50
2023-11-18T23:28:02.427Z,100807.56
2023-11-18T23:30:30.669Z,100800.19
2023-11-18T23:32:57.623Z,100811.22
2023-11-18T23:35:24.225Z,100814.63
2023-11-18T23:37:52.421Z,100799.56
2023-11-18T23:40:20.582Z,100796.97
2023-11-18T23:42:48.664Z,100798.38
2023-11-18T23:45:15.691Z,100797.03
2023-11-18T23:47:43.688Z,100798.03
2023-11-18T23:50:14.423Z,100793.09
2023-11-18T23:52:40.958Z,100792.06
2023-11-18T23:55:13.565Z,100777.81
2023-11-18T23:57:41.659Z,100781.22
